Time;durP1;ratioP1;P1;durP2;ratioP2;P2;SDS_P1;SDS_P2;PMS_P1;PMS_P2;Temp;Humidity;BMP_temperature;BMP_pressure;BME280_temperature;BME280_humidity;BME280_pressure;Samples;Min_cycle;Max_cycle;Signal;HPM_P1;HPM_P2
2023/01/21 00:00:18;;;;;;;92.20;28.93;;;;;;;;;;5095655;28;20020;-70
2023/01/21 00:02:43;;;;;;;69.28;27.90;;;;;;;;;;5099071;28;20394;-70
2023/01/21 00:05:08;;;;;;;71.50;28.27;;;;;;;;;;5096968;28;20059;-70
2023/01/21 00:07:34;;;;;;;70.83;26.30;;;;;;;;;;5098526;28;20058;-72
2023/01/21 00:09:59;;;;;;;68.03;28.67;;;;;;;;;;5077807;28;20762;-72
2023/01/21 00:12:24;;;;;;;70.13;28.53;;;;;;;;;;5100024;28;20131;-71
2023/01/21 00:14:49;;;;;;;69.67;28.73;;;;;;;;;;5080264;28;20077;-72
2023/01/21 00:17:15;;;;;;;76.70;29.50;;;;;;;;;;5101462;28;20275;-72
2023/01/21 00:19:40;;;;;;;69.07;29.33;;;;;;;;;;5098461;28;20024;-72
2023/01/21 00:22:05;;;;;;;70.27;27.93;;;;;;;;;;5085116;28;20067;-71
2023/01/21 00:24:30;;;;;;;69.82;27.88;;;;;;;;;;5081205;28;20280;-71
2023/01/21 00:26:56;;;;;;;65.80;28.77;;;;;;;;;;5102433;28;20050;-71
2023/01/21 00:29:21;;;;;;;69.47;27.80;;;;;;;;;;5077543;28;20032;-72
2023/01/21 00:31:47;;;;;;;67.68;26.92;;;;;;;;;;5099050;28;20279;-71
2023/01/21 00:34:12;;;;;;;74.43;28.73;;;;;;;;;;5096316;28;20061;-71
2023/01/21 00:36:37;;;;;;;67.30;28.70;;;;;;;;;;5099497;28;20023;-72
2023/01/21 00:39:03;;;;;;;68.60;27.57;;;;;;;;;;5100210;28;20284;-72
2023/01/21 00:41:28;;;;;;;72.03;28.87;;;;;;;;;;5099705;28;20287;-72
2023/01/21 00:43:53;;;;;;;70.43;28.40;;;;;;;;;;5097038;28;20035;-71
2023/01/21 00:46:18;;;;;;;66.27;28.63;;;;;;;;;;5098332;28;20299;-71
2023/01/21 00:48:44;;;;;;;61.33;27.93;;;;;;;;;;5101183;28;20290;-71
2023/01/21 00:51:09;;;;;;;65.90;27.30;;;;;;;;;;5086570;28;20477;-71
2023/01/21 00:53:36;;;;;;;64.03;27.73;;;;;;;;;;5101222;28;20556;-72
2023/01/21 00:56:03;;;;;;;67.95;26.23;;;;;;;;;;5102355;28;20377;-72
2023/01/21 00:58:29;;;;;;;66.85;27.80;;;;;;;;;;5102331;28;20118;-71
2023/01/21 01:01:01;;;;;;;64.97;27.27;;;;;;;;;;5103074;28;20541;-71
2023/01/21 01:03:26;;;;;;;69.32;28.05;;;;;;;;;;5081971;28;20051;-72
2023/01/21 01:05:51;;;;;;;66.47;27.77;;;;;;;;;;5100206;28;20069;-72
2023/01/21 01:08:17;;;;;;;66.40;28.00;;;;;;;;;;5087694;28;20035;-72
2023/01/21 01:10:42;;;;;;;66.72;27.70;;;;;;;;;;5100717;28;20310;-71
2023/01/21 01:13:07;;;;;;;66.25;28.17;;;;;;;;;;5084030;28;20031;-72
2023/01/21 01:15:32;;;;;;;64.93;27.30;;;;;;;;;;5100661;28;20027;-72
2023/01/21 01:17:58;;;;;;;63.90;27.33;;;;;;;;;;5093986;28;20497;-71
2023/01/21 01:20:23;;;;;;;64.73;26.77;;;;;;;;;;5096047;28;20366;-72
2023/01/21 01:22:48;;;;;;;63.30;26.73;;;;;;;;;;5094011;28;20280;-72
2023/01/21 01:25:14;;;;;;;67.53;27.53;;;;;;;;;;5101423;28;20283;-72
2023/01/21 01:27:39;;;;;;;68.70;27.40;;;;;;;;;;5081074;28;20356;-72
2023/01/21 01:30:04;;;;;;;61.95;27.00;;;;;;;;;;5098176;28;20028;-71
2023/01/21 01:32:30;;;;;;;65.97;26.83;;;;;;;;;;5098301;28;20058;-72
2023/01/21 01:34:55;;;;;;;68.20;27.10;;;;;;;;;;5087716;28;20027;-72
2023/01/21 01:37:20;;;;;;;65.67;27.00;;;;;;;;;;5104945;28;20993;-72
2023/01/21 01:39:45;;;;;;;67.35;26.77;;;;;;;;;;5106362;28;20366;-71
2023/01/21 01:42:14;;;;;;;64.23;26.23;;;;;;;;;;5107959;28;20032;-72
2023/01/21 01:44:59;;;;;;;70.03;27.30;;;;;;;;;;5102671;28;20036;-72
2023/01/21 01:47:30;;;;;;;67.15;27.17;;;;;;;;;;5106694;28;20032;-72
2023/01/21 01:49:56;;;;;;;77.47;30.10;;;;;;;;;;5089386;28;20199;-72
2023/01/21 01:52:21;;;;;;;67.57;29.05;;;;;;;;;;5091412;28;20114;-72
2023/01/21 01:54:51;;;;;;;70.68;28.33;;;;;;;;;;5099622;28;20123;-72
2023/01/21 01:57:19;;;;;;;69.25;28.25;;;;;;;;;;5081891;28;20473;-72
2023/01/21 01:59:45;;;;;;;70.45;27.50;;;;;;;;;;5100933;28;20153;-72
2023/01/21 02:02:13;;;;;;;66.40;28.25;;;;;;;;;;5106173;28;20111;-72
2023/01/21 02:04:50;;;;;;;74.50;28.75;;;;;;;;;;5106868;28;20023;-72
2023/01/21 02:07:17;;;;;;;72.18;27.98;;;;;;;;;;5084452;28;20536;-72
2023/01/21 02:09:42;;;;;;;71.97;26.63;;;;;;;;;;5101479;28;20432;-72
2023/01/21 02:12:08;;;;;;;77.15;28.90;;;;;;;;;;5104109;28;20041;-72
2023/01/21 02:14:41;;;;;;;67.88;26.83;;;;;;;;;;5090857;28;20039;-72
2023/01/21 02:17:19;;;;;;;68.15;26.30;;;;;;;;;;5102410;28;20024;-72
2023/01/21 02:19:53;;;;;;;66.13;26.05;;;;;;;;;;5103628;28;20031;-72
2023/01/21 02:22:25;;;;;;;70.43;25.45;;;;;;;;;;5103621;28;20024;-71
2023/01/21 02:24:50;;;;;;;67.78;26.83;;;;;;;;;;5103721;28;20020;-72
2023/01/21 02:27:18;;;;;;;69.67;27.30;;;;;;;;;;5102701;28;20089;-72
2023/01/21 02:29:43;;;;;;;68.03;26.08;;;;;;;;;;5099533;28;20023;-72
2023/01/21 02:32:11;;;;;;;72.87;25.20;;;;;;;;;;5099319;28;20500;-72
2023/01/21 02:35:12;;;;;;;68.68;25.00;;;;;;;;;;5091952;28;20264;-72
2023/01/21 02:37:42;;;;;;;70.38;25.83;;;;;;;;;;4998034;28;20045;-72
2023/01/21 02:40:20;;;;;;;68.53;26.30;;;;;;;;;;5008089;28;20041;-72
2023/01/21 02:42:46;;;;;;;68.28;26.23;;;;;;;;;;5006415;28;20044;-72
2023/01/21 02:45:34;;;;;;;69.35;27.02;;;;;;;;;;5001924;28;20084;-73
2023/01/21 02:48:05;;;;;;;70.00;27.27;;;;;;;;;;4986939;28;20065;-72
2023/01/21 02:50:35;;;;;;;69.65;27.17;;;;;;;;;;5008389;28;20037;-72
2023/01/21 02:53:02;;;;;;;73.97;27.92;;;;;;;;;;4995819;28;20499;-70
2023/01/21 02:55:29;;;;;;;78.30;29.25;;;;;;;;;;5002993;28;20038;-70
2023/01/21 02:57:56;;;;;;;74.45;28.25;;;;;;;;;;5004136;28;20041;-70
2023/01/21 03:00:28;;;;;;;69.93;27.70;;;;;;;;;;5006028;28;20113;-70
2023/01/21 03:03:02;;;;;;;71.38;27.85;;;;;;;;;;4994754;28;20507;-69
2023/01/21 03:05:30;;;;;;;69.18;27.88;;;;;;;;;;5008237;28;20046;-70
2023/01/21 03:08:18;;;;;;;65.90;28.48;;;;;;;;;;4995956;28;20099;-70
2023/01/21 03:10:50;;;;;;;70.50;27.80;;;;;;;;;;5014820;28;20053;-70
2023/01/21 03:16:55;;;;;;;66.40;27.33;;;;;;;;;;5081405;28;20031;-70
2023/01/21 03:18:54;;;;;;;66.20;27.13;;;;;;;;;;5105225;28;20081;-70
2023/01/21 03:21:22;;;;;;;67.07;28.58;;;;;;;;;;5083073;28;20023;-70
2023/01/21 03:23:50;;;;;;;71.75;28.88;;;;;;;;;;5102834;28;20046;-70
2023/01/21 03:26:17;;;;;;;68.72;27.10;;;;;;;;;;5089467;28;20600;-70
2023/01/21 03:28:44;;;;;;;67.43;28.05;;;;;;;;;;5088398;28;20037;-70
2023/01/21 03:31:13;;;;;;;70.55;28.30;;;;;;;;;;5101823;28;20053;-70
2023/01/21 03:33:40;;;;;;;71.00;27.17;;;;;;;;;;5100768;28;20031;-70
2023/01/21 03:36:12;;;;;;;63.45;25.80;;;;;;;;;;5099621;28;20028;-70
2023/01/21 03:38:41;;;;;;;65.32;26.23;;;;;;;;;;5077715;28;20401;-69
2023/01/21 03:41:16;;;;;;;66.95;25.70;;;;;;;;;;5107047;28;20043;-70
2023/01/21 03:43:41;;;;;;;68.63;26.60;;;;;;;;;;5097760;28;20359;-70
2023/01/21 03:46:09;;;;;;;63.65;26.33;;;;;;;;;;5099248;28;20051;-70
2023/01/21 03:48:44;;;;;;;64.43;25.40;;;;;;;;;;5099954;28;20032;-70
2023/01/21 03:51:15;;;;;;;60.00;24.08;;;;;;;;;;5095789;28;20026;-69
2023/01/21 03:53:41;;;;;;;60.78;22.77;;;;;;;;;;5100491;28;20541;-70
2023/01/21 03:56:06;;;;;;;56.97;22.95;;;;;;;;;;5103647;28;20111;-69
2023/01/21 03:58:31;;;;;;;55.08;22.25;;;;;;;;;;5091723;28;20070;-70
2023/01/21 04:00:57;;;;;;;56.80;22.17;;;;;;;;;;5088553;28;20036;-70
2023/01/21 04:03:22;;;;;;;55.55;22.92;;;;;;;;;;5103655;28;20637;-69
2023/01/21 04:05:47;;;;;;;59.22;24.35;;;;;;;;;;5082952;28;20023;-70
2023/01/21 04:08:13;;;;;;;57.88;22.25;;;;;;;;;;5102192;28;20032;-69
2023/01/21 04:10:38;;;;;;;52.20;21.55;;;;;;;;;;5084736;28;20196;-70
2023/01/21 04:13:03;;;;;;;53.20;21.60;;;;;;;;;;5098803;28;20480;-70
2023/01/21 04:15:28;;;;;;;51.83;20.77;;;;;;;;;;5102822;28;20284;-70
2023/01/21 04:17:54;;;;;;;47.27;19.57;;;;;;;;;;5099378;28;20622;-70
2023/01/21 04:20:19;;;;;;;48.00;20.03;;;;;;;;;;5104112;28;20299;-70
2023/01/21 04:22:44;;;;;;;55.25;22.40;;;;;;;;;;5100848;28;20031;-70
2023/01/21 04:25:09;;;;;;;50.93;21.13;;;;;;;;;;5098997;28;20525;-70
2023/01/21 04:27:35;;;;;;;51.37;22.30;;;;;;;;;;5100398;28;20416;-70
2023/01/21 04:30:00;;;;;;;60.77;23.37;;;;;;;;;;5102819;28;20282;-70
2023/01/21 04:32:25;;;;;;;55.70;22.83;;;;;;;;;;5096281;28;20280;-70
2023/01/21 04:34:50;;;;;;;54.33;22.40;;;;;;;;;;5076263;28;20488;-70
2023/01/21 04:37:16;;;;;;;56.90;23.77;;;;;;;;;;5100088;28;20416;-69
2023/01/21 04:39:41;;;;;;;59.22;24.55;;;;;;;;;;5103333;28;20278;-70
2023/01/21 04:42:06;;;;;;;61.42;25.35;;;;;;;;;;5097307;28;20051;-70
2023/01/21 04:44:31;;;;;;;60.43;24.37;;;;;;;;;;5103385;28;20062;-70
2023/01/21 04:46:57;;;;;;;58.72;23.38;;;;;;;;;;5079627;28;20055;-70
2023/01/21 04:49:22;;;;;;;59.57;23.73;;;;;;;;;;5101974;28;20672;-70
2023/01/21 04:51:47;;;;;;;57.73;24.43;;;;;;;;;;5101050;28;20280;-70
2023/01/21 04:54:12;;;;;;;54.60;22.00;;;;;;;;;;5100589;28;20329;-70
2023/01/21 04:56:38;;;;;;;52.13;22.30;;;;;;;;;;5102033;28;20359;-70
2023/01/21 04:59:03;;;;;;;56.72;22.80;;;;;;;;;;5085188;28;20440;-70
2023/01/21 05:01:28;;;;;;;51.03;20.60;;;;;;;;;;5092632;28;20062;-70
2023/01/21 05:03:53;;;;;;;43.30;18.80;;;;;;;;;;5073990;28;20055;-70
2023/01/21 05:06:19;;;;;;;43.70;18.30;;;;;;;;;;5086403;28;20032;-70
2023/01/21 05:08:44;;;;;;;48.53;20.60;;;;;;;;;;5096470;28;20735;-70
2023/01/21 05:11:10;;;;;;;47.97;19.77;;;;;;;;;;5103636;28;20310;-70
2023/01/21 05:13:35;;;;;;;45.13;19.40;;;;;;;;;;5082197;28;20024;-70
2023/01/21 05:16:07;;;;;;;44.50;18.43;;;;;;;;;;5098236;28;20031;-70
2023/01/21 05:18:32;;;;;;;47.72;19.27;;;;;;;;;;5099224;28;20322;-70
2023/01/21 05:20:57;;;;;;;46.93;19.57;;;;;;;;;;5102947;28;20027;-71
2023/01/21 05:23:22;;;;;;;52.33;20.23;;;;;;;;;;5106347;28;20367;-70
2023/01/21 05:25:48;;;;;;;41.90;17.73;;;;;;;;;;5101790;28;20280;-70
2023/01/21 05:28:13;;;;;;;41.70;17.25;;;;;;;;;;5101865;28;20028;-70
2023/01/21 05:30:38;;;;;;;41.93;17.43;;;;;;;;;;5095272;28;20032;-71
2023/01/21 05:33:03;;;;;;;42.00;16.83;;;;;;;;;;5101317;28;20626;-70
2023/01/21 05:35:29;;;;;;;41.07;16.20;;;;;;;;;;5099108;28;20280;-70
2023/01/21 05:37:54;;;;;;;36.30;15.52;;;;;;;;;;5095544;28;20345;-70
2023/01/21 05:40:19;;;;;;;36.80;14.77;;;;;;;;;;5099691;28;20158;-70
2023/01/21 05:42:44;;;;;;;38.13;16.60;;;;;;;;;;5097518;28;20280;-70
2023/01/21 05:45:10;;;;;;;41.50;16.75;;;;;;;;;;5095235;28;20376;-70
2023/01/21 05:47:36;;;;;;;38.85;15.85;;;;;;;;;;5102646;28;20025;-70
2023/01/21 05:50:01;;;;;;;41.55;17.10;;;;;;;;;;5095988;28;20021;-70
2023/01/21 05:52:26;;;;;;;43.83;16.83;;;;;;;;;;5074750;28;20031;-70
2023/01/21 05:54:51;;;;;;;41.53;17.03;;;;;;;;;;5101738;28;20145;-70
2023/01/21 05:57:17;;;;;;;94.10;25.90;;;;;;;;;;5086820;28;20276;-70
2023/01/21 05:59:42;;;;;;;120.70;32.87;;;;;;;;;;5101714;28;20028;-70
2023/01/21 06:02:07;;;;;;;45.27;17.97;;;;;;;;;;5098875;28;20027;-69
2023/01/21 06:04:32;;;;;;;43.63;17.57;;;;;;;;;;5100440;28;20345;-73
2023/01/21 06:06:57;;;;;;;37.33;15.43;;;;;;;;;;5082395;28;20781;-70
2023/01/21 06:09:23;;;;;;;39.90;16.40;;;;;;;;;;5102432;28;20169;-70
2023/01/21 06:11:48;;;;;;;41.45;16.90;;;;;;;;;;5101943;28;20559;-71
2023/01/21 06:14:13;;;;;;;41.90;16.75;;;;;;;;;;5101685;28;20028;-70
2023/01/21 06:16:38;;;;;;;39.13;16.10;;;;;;;;;;5102231;28;20397;-70
2023/01/21 06:19:04;;;;;;;39.03;15.67;;;;;;;;;;5100582;28;20020;-70
2023/01/21 06:21:29;;;;;;;44.15;17.40;;;;;;;;;;5087501;28;20280;-70
2023/01/21 06:23:54;;;;;;;36.03;15.18;;;;;;;;;;5102958;28;20062;-70
2023/01/21 06:26:20;;;;;;;41.93;17.17;;;;;;;;;;5106192;28;20393;-69
2023/01/21 06:28:45;;;;;;;40.63;16.57;;;;;;;;;;5091426;28;20268;-69
2023/01/21 06:31:10;;;;;;;44.40;16.03;;;;;;;;;;5105672;28;20866;-69
2023/01/21 06:33:35;;;;;;;85.20;35.30;;;;;;;;;;5103975;28;20276;-69
2023/01/21 06:36:01;;;;;;;50.70;19.53;;;;;;;;;;5105400;28;20275;-69
2023/01/21 06:38:26;;;;;;;50.58;19.58;;;;;;;;;;5104007;28;20088;-70
2023/01/21 06:40:51;;;;;;;46.40;17.85;;;;;;;;;;5098100;27;20064;-69
2023/01/21 06:43:16;;;;;;;46.00;17.85;;;;;;;;;;5106627;27;20016;-69
2023/01/21 06:45:42;;;;;;;48.70;19.30;;;;;;;;;;5107177;27;20113;-70
2023/01/21 06:48:08;;;;;;;54.22;20.13;;;;;;;;;;5087550;28;20822;-71
2023/01/21 06:50:33;;;;;;;50.50;20.20;;;;;;;;;;5086406;27;20020;-69
2023/01/21 06:52:58;;;;;;;45.65;19.13;;;;;;;;;;5089319;28;20678;-71
2023/01/21 06:55:24;;;;;;;56.90;20.77;;;;;;;;;;5100016;28;20028;-71
2023/01/21 06:57:49;;;;;;;56.33;21.47;;;;;;;;;;5099879;27;20076;-71
2023/01/21 07:00:14;;;;;;;60.97;21.20;;;;;;;;;;5114951;27;20821;-73
2023/01/21 07:02:39;;;;;;;55.35;20.80;;;;;;;;;;5092287;27;20286;-71
2023/01/21 07:05:05;;;;;;;55.80;20.50;;;;;;;;;;5108689;27;20060;-71
2023/01/21 07:07:30;;;;;;;55.08;20.70;;;;;;;;;;5108882;27;20299;-72
2023/01/21 07:09:55;;;;;;;58.67;20.53;;;;;;;;;;5098430;27;20031;-67
2023/01/21 07:12:21;;;;;;;53.70;21.20;;;;;;;;;;5113460;27;20481;-71
2023/01/21 07:14:46;;;;;;;57.07;21.67;;;;;;;;;;5111439;27;20020;-71
2023/01/21 07:17:11;;;;;;;58.57;21.63;;;;;;;;;;5110288;27;20271;-71
2023/01/21 07:19:36;;;;;;;57.35;23.15;;;;;;;;;;5090942;28;20394;-70
2023/01/21 07:22:02;;;;;;;59.80;22.30;;;;;;;;;;5097403;28;20023;-71
2023/01/21 07:24:27;;;;;;;60.23;22.23;;;;;;;;;;5121351;27;20118;-71
2023/01/21 07:26:52;;;;;;;65.43;23.43;;;;;;;;;;5108965;27;20796;-71
2023/01/21 07:29:18;;;;;;;65.85;24.17;;;;;;;;;;5107816;27;20308;-73
2023/01/21 07:31:43;;;;;;;61.72;23.88;;;;;;;;;;5106636;27;20023;-72
2023/01/21 07:34:08;;;;;;;68.47;24.80;;;;;;;;;;5096600;27;20039;-73
2023/01/21 07:36:34;;;;;;;59.28;23.40;;;;;;;;;;5100477;27;20645;-73
2023/01/21 07:38:59;;;;;;;62.23;20.33;;;;;;;;;;5086678;28;101822;-71
2023/01/21 07:41:24;;;;;;;58.47;20.20;;;;;;;;;;5072565;28;20270;-71
2023/01/21 07:43:49;;;;;;;57.73;20.67;;;;;;;;;;5071913;28;20807;-71
2023/01/21 07:46:15;;;;;;;54.67;18.95;;;;;;;;;;5073744;28;20453;-71
2023/01/21 07:48:41;;;;;;;56.65;19.35;;;;;;;;;;5071933;28;20553;-71
2023/01/21 07:51:06;;;;;;;58.00;19.98;;;;;;;;;;5068090;28;20062;-72
2023/01/21 07:53:31;;;;;;;55.97;20.15;;;;;;;;;;5067854;28;20052;-71
2023/01/21 07:55:56;;;;;;;61.43;19.17;;;;;;;;;;5071339;28;20021;-71
2023/01/21 07:58:22;;;;;;;60.43;20.23;;;;;;;;;;5071131;28;20288;-70
2023/01/21 08:00:47;;;;;;;62.37;19.80;;;;;;;;;;5065877;28;20060;-71
2023/01/21 08:03:12;;;;;;;61.43;20.37;;;;;;;;;;5060262;28;20284;-71
2023/01/21 08:05:37;;;;;;;62.73;19.93;;;;;;;;;;5065971;28;20029;-72
2023/01/21 08:08:03;;;;;;;61.22;19.95;;;;;;;;;;5054574;28;20108;-71
2023/01/21 08:10:28;;;;;;;66.70;20.60;;;;;;;;;;5065797;28;20036;-70
2023/01/21 08:12:53;;;;;;;61.07;20.40;;;;;;;;;;5062830;28;20111;-71
2023/01/21 08:15:18;;;;;;;55.27;18.20;;;;;;;;;;5072720;28;20273;-70
2023/01/21 08:17:45;;;;;;;55.43;18.33;;;;;;;;;;5070319;28;21783;-68
2023/01/21 08:20:11;;;;;;;61.90;19.58;;;;;;;;;;5076265;28;20052;-68
2023/01/21 08:22:36;;;;;;;49.22;15.25;;;;;;;;;;5054881;28;20109;-68
2023/01/21 08:25:02;;;;;;;40.60;14.32;;;;;;;;;;5078117;28;20465;-68
2023/01/21 08:27:28;;;;;;;50.97;16.65;;;;;;;;;;5070457;28;20145;-68
2023/01/21 08:29:53;;;;;;;46.53;14.90;;;;;;;;;;5075402;28;20382;-69
2023/01/21 08:32:18;;;;;;;46.93;16.20;;;;;;;;;;5074270;28;20334;-71
2023/01/21 08:34:43;;;;;;;44.27;17.07;;;;;;;;;;5065999;28;20046;-68
2023/01/21 08:37:09;;;;;;;47.93;16.10;;;;;;;;;;5067476;28;20103;-70
2023/01/21 08:39:34;;;;;;;48.00;16.98;;;;;;;;;;5071684;28;20284;-68
2023/01/21 08:42:00;;;;;;;47.30;17.05;;;;;;;;;;5071045;28;20039;-69
2023/01/21 08:44:25;;;;;;;44.73;16.13;;;;;;;;;;5055767;28;20048;-69
2023/01/21 08:46:50;;;;;;;39.87;15.07;;;;;;;;;;5070410;28;20299;-69
2023/01/21 08:49:15;;;;;;;37.17;13.70;;;;;;;;;;5065029;28;20130;-68
2023/01/21 08:51:40;;;;;;;35.93;14.23;;;;;;;;;;5077437;28;20117;-69
2023/01/21 08:54:06;;;;;;;31.70;12.97;;;;;;;;;;5075271;28;20647;-68
2023/01/21 08:56:31;;;;;;;28.45;11.63;;;;;;;;;;5077338;28;20024;-68
2023/01/21 08:58:57;;;;;;;26.67;11.27;;;;;;;;;;5073638;28;20047;-69
2023/01/21 09:01:23;;;;;;;30.25;12.85;;;;;;;;;;5073020;28;20032;-68
2023/01/21 09:03:52;;;;;;;30.40;11.82;;;;;;;;;;5076369;28;20308;-68
2023/01/21 09:06:18;;;;;;;33.35;13.82;;;;;;;;;;5077644;28;20032;-68
2023/01/21 09:08:43;;;;;;;33.03;13.87;;;;;;;;;;5076190;28;20490;-68
2023/01/21 09:11:08;;;;;;;33.93;13.87;;;;;;;;;;5056151;28;20028;-68
2023/01/21 09:13:36;;;;;;;35.20;15.52;;;;;;;;;;5070931;28;20355;-68
2023/01/21 09:16:02;;;;;;;37.90;15.07;;;;;;;;;;5060513;28;20020;-68
2023/01/21 09:18:27;;;;;;;38.97;14.43;;;;;;;;;;5059041;28;20826;-68
2023/01/21 09:20:52;;;;;;;39.15;16.05;;;;;;;;;;5064700;28;20086;-68
2023/01/21 09:23:23;;;;;;;38.67;16.03;;;;;;;;;;5050679;28;20032;-69
2023/01/21 09:26:01;;;;;;;36.13;14.77;;;;;;;;;;5048530;28;20285;-68
2023/01/21 09:28:26;;;;;;;39.38;15.38;;;;;;;;;;5066755;28;20028;-69
2023/01/21 09:30:55;;;;;;;41.97;16.02;;;;;;;;;;5099760;28;20050;-68
2023/01/21 09:33:20;;;;;;;34.15;14.40;;;;;;;;;;5086955;28;20035;-69
2023/01/21 09:35:51;;;;;;;32.07;14.23;;;;;;;;;;5065487;28;20028;-72
2023/01/21 09:38:16;;;;;;;28.70;12.73;;;;;;;;;;5090270;28;20276;-71
2023/01/21 09:40:43;;;;;;;26.93;11.53;;;;;;;;;;5075782;28;20408;-72
2023/01/21 09:43:11;;;;;;;28.02;12.32;;;;;;;;;;5086644;28;20039;-72
2023/01/21 09:45:38;;;;;;;33.00;13.68;;;;;;;;;;5094827;28;20109;-72
2023/01/21 09:48:05;;;;;;;29.70;12.52;;;;;;;;;;5072293;28;20027;-73
2023/01/21 09:50:31;;;;;;;30.60;13.35;;;;;;;;;;5090623;28;20038;-72
2023/01/21 09:53:03;;;;;;;37.45;14.82;;;;;;;;;;5066059;28;20135;-71
2023/01/21 09:55:36;;;;;;;32.05;12.73;;;;;;;;;;5092991;28;20077;-73
2023/01/21 09:58:04;;;;;;;29.70;12.15;;;;;;;;;;5093118;28;20427;-72
2023/01/21 10:00:32;;;;;;;28.35;11.80;;;;;;;;;;5086070;28;20024;-71
2023/01/21 10:03:01;;;;;;;23.13;10.13;;;;;;;;;;5089705;28;20024;-72
2023/01/21 10:05:45;;;;;;;24.83;10.52;;;;;;;;;;5089068;28;20745;-71
2023/01/21 10:08:11;;;;;;;22.88;9.65;;;;;;;;;;5098540;28;20031;-72
2023/01/21 10:10:36;;;;;;;21.30;10.27;;;;;;;;;;5104520;28;20035;-71
2023/01/21 10:13:26;;;;;;;25.40;10.40;;;;;;;;;;5100578;28;20111;-73
2023/01/21 10:16:04;;;;;;;25.10;10.60;;;;;;;;;;5075237;28;20036;-73
2023/01/21 10:18:31;;;;;;;23.52;10.10;;;;;;;;;;5099648;28;20031;-73
2023/01/21 10:20:59;;;;;;;21.92;9.27;;;;;;;;;;5096194;28;20024;-73
2023/01/21 10:23:31;;;;;;;20.38;9.32;;;;;;;;;;5072364;28;20028;-71
2023/01/21 10:25:58;;;;;;;23.92;9.52;;;;;;;;;;5096752;28;20047;-72
2023/01/21 10:28:24;;;;;;;16.95;7.93;;;;;;;;;;5089863;28;20077;-72
2023/01/21 10:30:51;;;;;;;21.95;8.98;;;;;;;;;;5091763;28;20059;-72
2023/01/21 10:33:19;;;;;;;20.45;8.68;;;;;;;;;;5086296;28;20068;-72
2023/01/21 10:35:47;;;;;;;14.68;7.85;;;;;;;;;;5068941;28;20115;-73
2023/01/21 10:38:35;;;;;;;16.38;7.43;;;;;;;;;;5090726;28;20611;-71
2023/01/21 10:41:06;;;;;;;18.30;7.65;;;;;;;;;;5070370;28;20584;-70
2023/01/21 10:43:35;;;;;;;17.88;7.60;;;;;;;;;;5089660;28;20124;-70
2023/01/21 10:46:00;;;;;;;16.58;7.28;;;;;;;;;;5089709;28;20402;-68
2023/01/21 10:48:28;;;;;;;15.23;6.90;;;;;;;;;;5094428;28;20050;-67
2023/01/21 10:51:17;;;;;;;12.25;5.93;;;;;;;;;;5069534;28;20831;-66
2023/01/21 10:53:45;;;;;;;12.30;6.07;;;;;;;;;;5085381;28;20123;-70
2023/01/21 10:56:10;;;;;;;13.95;7.13;;;;;;;;;;5091160;28;20316;-68
2023/01/21 10:58:39;;;;;;;13.33;6.33;;;;;;;;;;5090859;28;20039;-68
2023/01/21 11:01:05;;;;;;;;;;;;;;;;;;5090168;28;20020;-68
2023/01/21 11:03:33;;;;;;;9.80;5.40;;;;;;;;;;5093290;28;19922;-64
2023/01/21 11:05:59;;;;;;;12.32;5.88;;;;;;;;;;5092649;28;20439;-68
2023/01/21 11:08:25;;;;;;;10.10;5.45;;;;;;;;;;5093143;28;20370;-67
2023/01/21 11:10:54;;;;;;;10.32;5.00;;;;;;;;;;5093655;28;20042;-67
2023/01/21 11:13:19;;;;;;;9.77;4.82;;;;;;;;;;5088676;28;20034;-67
2023/01/21 11:15:46;;;;;;;10.35;4.80;;;;;;;;;;5091342;28;20103;-73
2023/01/21 11:18:24;;;;;;;8.55;4.45;;;;;;;;;;5089934;28;20012;-73
2023/01/21 11:20:49;;;;;;;6.70;4.20;;;;;;;;;;5098221;28;20020;-70
2023/01/21 11:23:24;;;;;;;5.95;3.72;;;;;;;;;;5076461;28;20093;-70
2023/01/21 11:25:49;;;;;;;5.88;3.50;;;;;;;;;;5090702;28;20039;-70
2023/01/21 11:28:30;;;;;;;7.97;4.28;;;;;;;;;;5090256;28;20024;-70
2023/01/21 11:31:18;;;;;;;7.50;3.65;;;;;;;;;;5091211;28;20073;-70
2023/01/21 11:33:44;;;;;;;6.63;3.23;;;;;;;;;;5089755;28;20023;-70
2023/01/21 11:36:09;;;;;;;9.93;4.57;;;;;;;;;;5091459;28;20294;-69
2023/01/21 11:38:35;;;;;;;11.30;5.10;;;;;;;;;;5093430;28;20423;-70
2023/01/21 11:41:01;;;;;;;10.27;4.53;;;;;;;;;;5091127;28;20122;-70
2023/01/21 11:43:39;;;;;;;9.10;4.85;;;;;;;;;;5091825;28;20503;-69
2023/01/21 11:46:19;;;;;;;8.07;4.28;;;;;;;;;;5088345;28;21236;-69
2023/01/21 11:48:45;;;;;;;7.53;4.30;;;;;;;;;;5090088;28;20015;-71
2023/01/21 11:51:10;;;;;;;10.00;5.10;;;;;;;;;;5091187;28;20034;-71
2023/01/21 11:53:37;;;;;;;7.35;3.95;;;;;;;;;;5091926;28;20027;-71
2023/01/21 11:56:02;;;;;;;8.95;4.47;;;;;;;;;;5087389;28;20027;-71
2023/01/21 11:58:29;;;;;;;7.57;4.20;;;;;;;;;;5086118;28;20028;-72
2023/01/21 12:00:56;;;;;;;6.22;3.88;;;;;;;;;;5088722;28;20028;-71
2023/01/21 12:03:24;;;;;;;6.47;3.60;;;;;;;;;;5083881;28;20028;-71
2023/01/21 12:05:50;;;;;;;7.10;3.65;;;;;;;;;;5086869;28;20700;-71
2023/01/21 12:08:23;;;;;;;5.18;3.50;;;;;;;;;;5067372;28;20036;-70
2023/01/21 12:10:50;;;;;;;8.95;4.15;;;;;;;;;;5088747;28;20016;-68
2023/01/21 12:13:15;;;;;;;9.63;5.03;;;;;;;;;;5088291;28;20028;-69
2023/01/21 12:16:02;;;;;;;8.07;4.05;;;;;;;;;;5084369;28;20494;-69
2023/01/21 12:18:45;;;;;;;7.55;3.97;;;;;;;;;;5089122;28;20028;-69
2023/01/21 12:21:19;;;;;;;8.20;4.20;;;;;;;;;;5086858;28;20039;-69
2023/01/21 12:23:44;;;;;;;8.80;4.07;;;;;;;;;;5087268;28;20038;-69
2023/01/21 12:26:13;;;;;;;5.90;3.90;;;;;;;;;;5085322;28;20512;-70
2023/01/21 12:28:42;;;;;;;5.78;3.50;;;;;;;;;;5089389;28;20287;-71
2023/01/21 12:31:07;;;;;;;;;;;;;;;;;;5089097;28;20028;-69
2023/01/21 12:33:44;;;;;;;7.15;4.22;;;;;;;;;;5088845;28;19916;-70
2023/01/21 12:36:09;;;;;;;6.68;4.00;;;;;;;;;;5092942;28;20080;-69
2023/01/21 12:38:38;;;;;;;7.27;4.13;;;;;;;;;;5088367;28;20564;-72
2023/01/21 12:41:22;;;;;;;5.75;3.67;;;;;;;;;;5088761;28;20023;-73
2023/01/21 12:43:56;;;;;;;7.63;3.60;;;;;;;;;;5089688;28;20056;-72
2023/01/21 12:46:23;;;;;;;7.13;3.55;;;;;;;;;;5087044;28;20044;-69
2023/01/21 12:48:52;;;;;;;5.30;3.55;;;;;;;;;;5086567;28;20943;-70
2023/01/21 12:51:29;;;;;;;7.88;3.75;;;;;;;;;;5092658;28;20732;-70
2023/01/21 12:53:57;;;;;;;6.82;3.75;;;;;;;;;;5088252;28;20109;-69
2023/01/21 12:56:46;;;;;;;4.45;3.08;;;;;;;;;;5077220;28;20107;-70
2023/01/21 12:59:24;;;;;;;5.32;3.40;;;;;;;;;;5074323;28;20028;-71
2023/01/21 13:01:58;;;;;;;5.18;3.35;;;;;;;;;;5091734;28;20019;-69
2023/01/21 13:04:29;;;;;;;5.68;3.30;;;;;;;;;;5088337;28;20040;-73
2023/01/21 13:06:58;;;;;;;4.78;3.25;;;;;;;;;;5088483;28;20099;-73
2023/01/21 13:09:43;;;;;;;6.75;3.55;;;;;;;;;;5071231;28;20035;-73
2023/01/21 13:12:12;;;;;;;8.25;4.95;;;;;;;;;;5084780;28;20043;-73
2023/01/21 13:14:43;;;;;;;6.05;3.33;;;;;;;;;;5095853;28;20397;-72
2023/01/21 13:17:14;;;;;;;6.07;3.70;;;;;;;;;;5094236;28;20016;-75
2023/01/21 13:19:39;;;;;;;4.88;3.33;;;;;;;;;;5093812;28;20023;-67
2023/01/21 13:22:27;;;;;;;6.15;3.90;;;;;;;;;;5095335;28;20022;-71
2023/01/21 13:24:59;;;;;;;7.63;4.20;;;;;;;;;;5075775;28;20055;-67
2023/01/21 13:27:32;;;;;;;6.95;4.40;;;;;;;;;;5093694;28;20114;-68
2023/01/21 13:30:18;;;;;;;7.18;4.28;;;;;;;;;;5073239;28;20024;-75
2023/01/21 13:32:48;;;;;;;7.65;4.72;;;;;;;;;;5092459;28;20027;-75
2023/01/21 13:35:18;;;;;;;9.30;5.88;;;;;;;;;;5090952;28;20482;-75
2023/01/21 13:37:43;;;;;;;8.50;5.38;;;;;;;;;;5091911;28;20020;-71
2023/01/21 13:40:28;;;;;;;7.05;4.35;;;;;;;;;;5076420;28;20028;-70
2023/01/21 13:43:11;;;;;;;6.63;4.22;;;;;;;;;;5092858;28;20423;-75
2023/01/21 13:45:49;;;;;;;7.28;3.55;;;;;;;;;;5073694;28;20127;-71
2023/01/21 13:48:19;;;;;;;5.40;3.25;;;;;;;;;;5082277;28;20564;-71
2023/01/21 13:51:01;;;;;;;4.05;3.00;;;;;;;;;;5070525;28;20028;-70
2023/01/21 13:53:36;;;;;;;4.90;3.33;;;;;;;;;;5077988;28;20741;-70
2023/01/21 13:56:07;;;;;;;5.13;3.30;;;;;;;;;;5099440;28;20020;-70
2023/01/21 13:58:54;;;;;;;4.35;3.08;;;;;;;;;;5090965;28;20026;-70
2023/01/21 14:01:24;;;;;;;4.20;3.13;;;;;;;;;;5092947;28;20580;-69
2023/01/21 14:03:59;;;;;;;5.95;3.22;;;;;;;;;;5067628;28;20375;-69
2023/01/21 14:06:27;;;;;;;5.40;2.83;;;;;;;;;;5090177;28;20460;-67
2023/01/21 14:09:03;;;;;;;6.20;3.75;;;;;;;;;;5089313;28;20158;-69
2023/01/21 14:11:31;;;;;;;5.28;3.50;;;;;;;;;;5091303;28;20497;-69
2023/01/21 14:13:59;;;;;;;5.40;3.45;;;;;;;;;;5096060;28;20057;-69
2023/01/21 14:16:42;;;;;;;7.18;4.30;;;;;;;;;;5082796;28;20028;-69
2023/01/21 14:19:13;;;;;;;7.00;4.25;;;;;;;;;;5094715;28;20031;-69
2023/01/21 14:21:42;;;;;;;6.88;4.50;;;;;;;;;;5086668;28;20055;-72
2023/01/21 14:24:10;;;;;;;11.05;5.53;;;;;;;;;;5085865;28;20056;-73
2023/01/21 14:26:51;;;;;;;10.43;5.78;;;;;;;;;;5092622;28;20016;-72
2023/01/21 14:29:28;;;;;;;11.10;5.82;;;;;;;;;;5097376;28;20427;-72
2023/01/21 14:32:01;;;;;;;8.85;5.38;;;;;;;;;;5095320;28;20039;-71